Time;durP1;ratioP1;P1;durP2;ratioP2;P2;SDS_P1;SDS_P2;PMS_P1;PMS_P2;Temp;Humidity;BMP_temperature;BMP_pressure;BME280_temperature;BME280_humidity;BME280_pressure;Samples;Min_cycle;Max_cycle;Signal;HPM_P1;HPM_P2
2023/01/24 01:46:48;;;;;;;56.50;21.30;;;;;;;-1.99;100.00;102176.56;104624;1293;616410;-88
2023/01/24 01:49:21;;;;;;;53.90;21.10;;;;;;;1.09;100.00;102170.74;107242;1269;62289;-89
2023/01/24 01:51:49;;;;;;;53.10;21.10;;;;;;;1.57;100.00;102167.82;107697;1260;61369;-89
2023/01/24 01:54:29;;;;;;;46.60;19.20;;;;;;;2.02;100.00;102170.14;107652;1260;73043;-89
2023/01/24 01:57:05;;;;;;;54.60;20.70;;;;;;;2.40;100.00;102172.83;107677;1261;70396;-88
2023/01/24 01:59:37;;;;;;;43.60;17.80;;;;;;;2.48;100.00;102170.45;107592;1259;218278;-89
2023/01/24 02:02:04;;;;;;;46.70;19.50;;;;;;;2.78;100.00;102168.54;107845;1259;63317;-89
2023/01/24 02:04:34;;;;;;;46.40;18.20;;;;;;;2.75;100.00;102168.27;107826;1259;59332;-89
2023/01/24 02:07:32;;;;;;;50.90;19.50;;;;;;;2.50;100.00;102168.08;107674;1259;72284;-89
2023/01/24 02:09:59;;;;;;;47.10;18.10;;;;;;;2.80;100.00;102169.81;107808;1259;69408;-88
2023/01/24 02:12:53;;;;;;;46.90;18.40;;;;;;;3.23;100.00;102166.40;107624;1266;72182;-89
2023/01/24 02:18:09;;;;;;;44.70;17.50;;;;;;;3.67;100.00;102164.05;107899;1259;61349;-89
2023/01/24 02:20:38;;;;;;;47.50;18.40;;;;;;;3.81;100.00;102167.51;107851;1259;73015;-89
2023/01/24 02:23:30;;;;;;;50.20;19.20;;;;;;;3.99;100.00;102170.01;107831;1259;69513;-88
2023/01/24 02:26:03;;;;;;;44.80;17.90;;;;;;;3.96;100.00;102167.85;107921;1259;72248;-89
2023/01/24 02:28:31;;;;;;;47.50;19.30;;;;;;;4.01;100.00;102171.43;108121;1259;61871;-88
2023/01/24 02:30:59;;;;;;;42.70;17.50;;;;;;;4.07;100.00;102170.36;108403;1259;61016;-88
2023/01/24 02:33:27;;;;;;;45.00;18.50;;;;;;;4.10;100.00;102172.48;108429;1259;72834;-87
2023/01/24 02:36:21;;;;;;;44.40;19.10;;;;;;;4.06;100.00;102175.54;108630;1259;70421;-88
2023/01/24 02:39:00;;;;;;;53.10;20.10;;;;;;;4.00;100.00;102172.46;108479;1259;72546;-86
2023/01/24 03:59:44;;;;;;;67.50;25.90;;;;;;;-1.39;100.00;102168.06;106297;1290;613881;-92
2023/01/24 04:03:40;;;;;;;60.90;25.60;;;;;;;1.23;100.00;102161.88;108715;1269;60972;-93
2023/01/24 04:06:49;;;;;;;55.30;23.00;;;;;;;1.94;100.00;102157.26;108754;1269;59449;-95
2023/01/24 04:11:22;;;;;;;60.60;24.60;;;;;;;2.27;100.00;102162.20;108563;1269;70981;-94
2023/01/24 04:14:24;;;;;;;53.80;22.20;;;;;;;2.57;100.00;102163.44;106898;1268;70079;-65
2023/01/24 04:17:05;;;;;;;55.70;22.80;;;;;;;2.64;100.00;102160.52;107081;1268;73710;-64
2023/01/24 04:19:40;;;;;;;53.60;22.90;;;;;;;2.76;100.00;102161.02;107099;1269;62209;-65
2023/01/24 04:22:07;;;;;;;63.60;23.90;;;;;;;3.00;100.00;102161.84;107365;1262;59331;-65
2023/01/24 04:24:34;;;;;;;48.10;20.20;;;;;;;3.28;100.00;102159.06;107382;1262;73435;-65
2023/01/24 04:27:01;;;;;;;42.30;18.80;;;;;;;3.31;100.00;102161.41;107424;1262;71514;-64
2023/01/24 04:29:34;;;;;;;57.80;21.90;;;;;;;3.20;100.00;102168.97;107387;1262;72422;-63
2023/01/24 04:32:01;;;;;;;51.00;21.10;;;;;;;3.26;100.00;102167.70;107401;1267;61242;-65
2023/01/24 04:34:39;;;;;;;51.20;21.70;;;;;;;3.32;100.00;102171.16;107386;1264;61288;-65
2023/01/24 04:37:10;;;;;;;54.50;22.10;;;;;;;3.38;100.00;102170.95;107363;1263;72758;-68
2023/01/24 04:39:39;;;;;;;48.30;21.20;;;;;;;3.42;100.00;102173.15;107443;1262;71220;-65
2023/01/24 04:42:11;;;;;;;44.20;18.40;;;;;;;3.60;100.00;102181.23;107472;1265;73796;-66
2023/01/24 04:44:38;;;;;;;41.70;18.40;;;;;;;3.41;100.00;102179.38;107443;1260;60085;-65
2023/01/24 04:47:05;;;;;;;44.90;18.50;;;;;;;3.60;100.00;102180.53;107495;1261;60558;-65
2023/01/24 04:49:34;;;;;;;49.80;21.80;;;;;;;3.48;100.00;102180.78;107370;1261;71821;-65
2023/01/24 04:52:02;;;;;;;45.70;18.70;;;;;;;3.70;100.00;102185.13;107454;1261;71243;-65
2023/01/24 04:54:40;;;;;;;48.20;20.80;;;;;;;3.67;100.00;102186.61;107467;1262;73420;-64
2023/01/24 04:57:07;;;;;;;41.90;19.70;;;;;;;3.65;100.00;102188.83;107375;1260;62321;-64
2023/01/24 04:59:34;;;;;;;50.70;21.10;;;;;;;3.77;100.00;102188.92;107483;1260;61078;-61
2023/01/24 05:02:04;;;;;;;44.00;19.50;;;;;;;3.61;100.00;102195.51;107440;1264;74215;-65
2023/01/24 05:04:37;;;;;;;44.20;18.60;;;;;;;3.50;100.00;102191.77;107477;1260;70502;-63
2023/01/24 05:07:04;;;;;;;50.00;20.30;;;;;;;3.41;100.00;102189.63;107444;1262;73431;-63
2023/01/24 05:09:32;;;;;;;48.90;20.80;;;;;;;3.58;100.00;102191.95;107439;1260;62345;-65
2023/01/24 05:12:02;;;;;;;49.80;20.10;;;;;;;3.77;100.00;102190.66;107537;1260;61096;-65
2023/01/24 05:14:29;;;;;;;53.60;19.90;;;;;;;3.90;100.00;102190.27;107475;1260;74068;-64
2023/01/24 05:16:57;;;;;;;50.00;20.60;;;;;;;3.83;100.00;102191.69;107469;1261;70121;-65
2023/01/24 05:19:25;;;;;;;41.30;18.20;;;;;;;3.84;100.00;102195.19;107411;1260;73595;-64
2023/01/24 05:21:52;;;;;;;54.30;20.70;;;;;;;3.61;100.00;102193.08;107431;1260;62825;-63
2023/01/24 05:24:19;;;;;;;41.60;18.60;;;;;;;3.65;100.00;102197.70;107364;1260;59596;-64
2023/01/24 05:26:46;;;;;;;40.70;18.40;;;;;;;3.96;100.00;102198.08;107435;1260;74055;-62
2023/01/24 05:29:15;;;;;;;49.50;22.60;;;;;;;4.22;100.00;102199.88;107483;1261;70097;-63
2023/01/24 05:31:42;;;;;;;47.40;21.00;;;;;;;3.86;100.00;102203.58;107479;1261;73906;-64
2023/01/24 05:34:10;;;;;;;55.80;21.80;;;;;;;3.58;100.00;102199.95;107442;1262;61081;-64
2023/01/24 05:36:37;;;;;;;49.40;19.20;;;;;;;3.33;100.00;102196.19;107401;1260;61394;-64
2023/01/24 05:39:04;;;;;;;46.20;20.40;;;;;;;3.62;100.00;102196.38;107548;1262;74507;-63
2023/01/24 05:41:32;;;;;;;51.10;21.50;;;;;;;3.53;100.00;102193.40;107475;1262;71567;-66
2023/01/24 05:43:59;;;;;;;45.80;19.80;;;;;;;3.60;98.77;102195.48;107484;1260;72639;-65
2023/01/24 05:46:29;;;;;;;52.20;21.90;;;;;;;3.64;93.06;102197.99;107495;1267;61297;-65
2023/01/24 05:49:08;;;;;;;54.50;23.30;;;;;;;3.69;91.90;102201.95;107529;1261;59608;-64
2023/01/24 05:51:35;;;;;;;50.10;20.90;;;;;;;3.65;90.37;102198.03;107499;1260;71805;-65
2023/01/24 05:54:03;;;;;;;58.00;24.00;;;;;;;3.59;90.40;102202.05;107445;1260;70923;-66
2023/01/24 05:56:48;;;;;;;57.70;23.40;;;;;;;3.66;89.99;102207.79;107777;1257;72925;-64
2023/01/24 05:59:16;;;;;;;46.00;20.30;;;;;;;3.72;89.80;102209.84;107661;1257;62098;-65
2023/01/24 06:01:43;;;;;;;46.90;21.50;;;;;;;3.76;89.25;102213.25;107594;1259;60338;-65
2023/01/24 06:04:09;;;;;;;53.50;22.40;;;;;;;3.87;89.68;102213.86;107690;1258;74138;-65
2023/01/24 06:06:38;;;;;;;59.80;21.60;;;;;;;4.14;88.88;102216.91;107667;1258;71624;-65
2023/01/24 06:09:08;;;;;;;62.30;23.10;;;;;;;3.95;89.10;102216.99;107698;1258;73416;-65
2023/01/24 06:11:35;;;;;;;54.70;24.30;;;;;;;4.00;88.78;102215.20;107559;1258;60982;-65
2023/01/24 06:14:10;;;;;;;49.50;20.40;;;;;;;4.26;87.02;102217.19;107575;1257;60705;-64
2023/01/24 06:16:38;;;;;;;48.00;21.40;;;;;;;4.48;74.32;102218.70;107627;1261;73048;-65
2023/01/24 06:19:07;;;;;;;56.20;23.20;;;;;;;4.37;73.37;102217.27;107618;1257;71462;-66
2023/01/24 06:21:46;;;;;;;52.80;21.80;;;;;;;4.22;72.38;102216.92;107653;1257;72576;-65
2023/01/24 06:24:24;;;;;;;51.60;22.30;;;;;;;4.33;71.10;102219.09;107698;1257;62359;-65
2023/01/24 06:27:09;;;;;;;54.90;23.10;;;;;;;4.33;70.66;102219.95;107643;1257;61155;-65
2023/01/24 06:29:36;;;;;;;53.10;23.40;;;;;;;4.18;71.09;102220.48;107642;1259;74127;-65
2023/01/24 06:32:03;;;;;;;44.00;21.10;;;;;;;4.10;71.42;102219.27;107718;1260;69275;-65
2023/01/24 06:34:43;;;;;;;53.70;21.80;;;;;;;4.13;71.13;102222.11;107644;1258;71232;-65
2023/01/24 06:37:29;;;;;;;49.30;21.20;;;;;;;4.37;70.87;102220.90;107610;1258;62163;-65
2023/01/24 06:39:56;;;;;;;50.00;21.50;;;;;;;4.31;71.49;102223.23;107635;1257;61276;-65
2023/01/24 06:42:24;;;;;;;52.30;22.00;;;;;;;4.33;71.45;102218.23;107565;1257;74483;-65
2023/01/24 06:44:52;;;;;;;47.30;19.60;;;;;;;4.43;71.62;102218.61;107639;1259;71306;-65
2023/01/24 06:47:19;;;;;;;51.80;22.00;;;;;;;4.53;71.67;102219.16;107629;1259;71768;-65
2023/01/24 06:49:46;;;;;;;48.80;21.00;;;;;;;4.73;71.27;102216.28;107638;1257;62387;-65
2023/01/24 06:52:13;;;;;;;50.40;22.10;;;;;;;4.72;71.22;102217.64;107566;1257;59836;-65
2023/01/24 06:54:40;;;;;;;51.30;21.10;;;;;;;4.60;71.32;102219.48;107653;1257;73684;-65
2023/01/24 06:57:06;;;;;;;44.50;19.80;;;;;;;4.78;71.17;102221.77;107665;1257;71451;-65
2023/01/24 06:59:34;;;;;;;51.40;21.80;;;;;;;4.84;71.04;102220.14;107692;1261;73933;-65
2023/01/24 07:02:01;;;;;;;48.70;19.80;;;;;;;4.55;71.82;102221.13;107704;1258;62218;-65
2023/01/24 07:04:28;;;;;;;49.90;21.30;;;;;;;4.52;72.38;102224.36;107661;1258;61287;-66
2023/01/24 07:06:55;;;;;;;43.60;20.30;;;;;;;4.65;71.63;102226.55;107642;1257;73237;-66
2023/01/24 07:09:22;;;;;;;50.80;22.80;;;;;;;4.76;71.23;102226.08;107658;1259;71306;-65
2023/01/24 07:11:52;;;;;;;64.70;26.60;;;;;;;4.67;71.28;102226.41;107649;1260;73645;-65
2023/01/24 07:14:19;;;;;;;59.80;23.70;;;;;;;4.93;70.55;102231.30;107686;1258;60194;-66
2023/01/24 07:16:46;;;;;;;45.70;20.40;;;;;;;4.90;70.74;102230.36;107707;1259;59635;-66
2023/01/24 07:19:14;;;;;;;52.40;21.80;;;;;;;4.81;70.97;102233.66;107608;1258;73996;-65
2023/01/24 07:21:41;;;;;;;43.70;19.30;;;;;;;4.81;70.91;102230.02;107643;1259;69547;-65
2023/01/24 07:24:16;;;;;;;49.70;20.10;;;;;;;4.70;71.82;102233.45;107608;1258;73719;-65
2023/01/24 07:26:43;;;;;;;53.70;22.00;;;;;;;4.95;70.68;102232.55;107658;1258;62533;-65
2023/01/24 07:29:11;;;;;;;43.10;19.90;;;;;;;5.09;70.22;102233.54;107698;1259;61464;-65
2023/01/24 07:31:37;;;;;;;58.10;23.20;;;;;;;5.13;70.00;102233.27;107670;1259;73998;-64
2023/01/24 07:34:04;;;;;;;48.20;20.70;;;;;;;4.97;69.67;102237.10;107743;1258;70222;-65
2023/01/24 07:36:32;;;;;;;44.80;19.00;;;;;;;4.90;70.27;102235.75;107668;1259;73911;-65
2023/01/24 07:38:58;;;;;;;47.60;21.00;;;;;;;4.97;70.11;102235.04;107666;1258;62428;-64
2023/01/24 07:41:25;;;;;;;47.20;20.90;;;;;;;5.11;69.60;102235.83;107663;1258;61541;-65
2023/01/24 07:43:53;;;;;;;64.60;24.90;;;;;;;5.20;68.29;102234.08;107720;1257;73375;-65
2023/01/24 07:46:20;;;;;;;44.60;19.70;;;;;;;5.19;67.39;102233.54;107670;1258;71031;-65
2023/01/24 12:09:26;;;;;;;48.70;22.50;;;;;;;4.29;100.00;102101.61;105725;1284;87754;-78
2023/01/24 12:12:05;;;;;;;44.40;21.60;;;;;;;4.38;100.00;102098.86;107127;1270;69605;-78
2023/01/24 12:14:55;;;;;;;49.20;20.60;;;;;;;4.73;100.00;102096.21;107357;1266;73036;-79
2023/01/24 12:17:36;;;;;;;;;;;;;;;4.55;100.00;102100.05;107496;1267;61235;-77
2023/01/24 12:20:30;;;;;;;44.00;21.60;;;;;;;4.59;100.00;102097.69;107413;1266;60268;-78
2023/01/24 12:23:27;;;;;;;46.00;20.70;;;;;;;4.86;100.00;102097.13;107436;1266;71901;-79
2023/01/24 12:25:55;;;;;;;49.80;22.30;;;;;;;5.05;100.00;102094.69;107546;1260;70619;-79
2023/01/24 12:28:33;;;;;;;49.20;23.10;;;;;;;4.93;100.00;102093.06;107624;1257;71347;-79
2023/01/24 12:31:00;;;;;;;59.70;24.20;;;;;;;4.97;100.00;102097.15;107729;1257;61206;-78
2023/01/24 12:33:31;;;;;;;47.10;20.80;;;;;;;4.98;100.00;102097.17;107731;1257;59438;-79
2023/01/24 12:36:29;;;;;;;43.10;20.60;;;;;;;5.00;100.00;102099.30;108007;1256;72018;-79
2023/01/24 12:38:59;;;;;;;45.20;21.30;;;;;;;5.27;100.00;102097.32;107863;1256;70159;-79
2023/01/24 12:41:33;;;;;;;45.00;21.70;;;;;;;5.00;100.00;102097.04;107660;1256;72446;-79
2023/01/24 12:44:29;;;;;;;48.50;21.50;;;;;;;4.88;100.00;102102.23;107901;1256;62108;-78
2023/01/24 12:47:02;;;;;;;51.80;23.40;;;;;;;5.24;100.00;102106.50;107541;1257;61404;-78
2023/01/24 12:49:34;;;;;;;40.40;18.00;;;;;;;5.31;100.00;102104.70;107729;1257;74239;-77
2023/01/24 12:52:28;;;;;;;46.60;21.10;;;;;;;5.21;100.00;102107.67;107659;1257;70480;-78
2023/01/24 12:55:09;;;;;;;56.60;24.60;;;;;;;5.44;100.00;102105.43;107593;1257;72814;-78
2023/01/24 12:58:03;;;;;;;47.70;21.60;;;;;;;5.49;100.00;102109.52;107862;1256;61080;-78
2023/01/24 13:00:52;;;;;;;42.60;19.80;;;;;;;5.49;100.00;102111.95;107840;1256;60727;-79
2023/01/24 13:03:55;;;;;;;48.80;21.70;;;;;;;5.10;100.00;102108.35;107536;1260;74434;-79
2023/01/24 13:06:29;;;;;;;44.40;20.80;;;;;;;5.19;100.00;102111.30;107624;1258;71189;-79
2023/01/24 13:09:23;;;;;;;46.50;22.10;;;;;;;5.16;100.00;102113.17;107861;1261;73661;-79
2023/01/24 13:11:51;;;;;;;53.90;21.50;;;;;;;5.34;100.00;102111.02;107798;1258;61303;-79
2023/01/24 13:14:23;;;;;;;47.20;20.50;;;;;;;5.40;100.00;102106.92;107824;1257;60213;-79
2023/01/24 13:17:03;;;;;;;;;;;;;;;5.49;100.00;102109.86;107832;1260;72656;-79
2023/01/24 13:19:55;;;;;;;47.30;20.70;;;;;;;5.77;86.88;102111.32;107780;1260;71304;-79
2023/01/24 13:22:37;;;;;;;46.00;21.50;;;;;;;5.54;76.19;102111.50;107625;1260;73693;-79
2023/01/24 13:25:19;;;;;;;41.60;19.80;;;;;;;5.63;75.31;102112.34;107746;1259;61069;-78
2023/01/24 13:27:55;;;;;;;52.70;21.90;;;;;;;5.63;74.90;102105.72;107782;1258;59845;-78
2023/01/24 13:30:33;;;;;;;48.40;22.40;;;;;;;5.50;74.77;102104.66;107743;1262;73021;-79
2023/01/24 13:33:03;;;;;;;44.90;20.10;;;;;;;5.40;74.87;102102.23;107648;1260;71570;-79
2023/01/24 13:35:31;;;;;;;42.70;21.70;;;;;;;5.34;75.06;102105.61;107675;1260;74167;-79
2023/01/24 13:38:06;;;;;;;42.70;21.80;;;;;;;5.40;75.37;102100.14;107552;1260;61229;-78
2023/01/24 13:40:36;;;;;;;49.30;21.10;;;;;;;5.38;75.40;102102.20;107646;1259;59417;-80
2023/01/24 13:43:03;;;;;;;42.40;20.60;;;;;;;5.40;74.93;102095.27;107576;1259;72029;-78
2023/01/24 13:45:39;;;;;;;39.20;19.30;;;;;;;5.69;73.85;102093.79;107639;1260;69575;-79
2023/01/24 13:48:40;;;;;;;38.00;18.80;;;;;;;5.54;73.89;102091.30;107759;1259;72727;-79
2023/01/24 13:51:17;;;;;;;45.60;21.90;;;;;;;5.38;74.64;102092.09;107767;1260;61941;-79
2023/01/24 13:53:56;;;;;;;56.10;22.90;;;;;;;5.34;74.72;102089.07;107842;1258;61337;-79
2023/01/24 13:56:23;;;;;;;45.70;22.60;;;;;;;5.35;74.60;102092.73;107809;1260;73984;-79
2023/01/24 13:58:51;;;;;;;47.80;23.80;;;;;;;5.55;74.03;102090.08;107789;1260;70500;-78
2023/01/24 14:01:18;;;;;;;41.50;20.70;;;;;;;5.80;72.94;102090.11;107829;1259;71006;-79
2023/01/24 14:03:59;;;;;;;38.90;19.60;;;;;;;5.76;73.42;102088.83;107711;1260;62299;-78
2023/01/24 14:06:26;;;;;;;38.40;18.90;;;;;;;5.82;72.92;102091.35;107665;1259;59414;-77
2023/01/24 14:08:59;;;;;;;37.60;18.00;;;;;;;6.12;71.52;102086.20;107557;1259;73452;-78
2023/01/24 14:11:35;;;;;;;47.60;20.90;;;;;;;6.31;71.18;102085.38;107754;1259;71495;-79
2023/01/24 14:14:25;;;;;;;36.60;18.70;;;;;;;6.22;70.63;102082.14;107596;1259;71166;-79
2023/01/24 14:16:52;;;;;;;35.00;16.70;;;;;;;6.41;69.90;102083.42;107631;1257;60487;-79
2023/01/24 14:19:22;;;;;;;36.90;17.30;;;;;;;6.31;70.58;102086.09;107845;1257;60513;-79
2023/01/24 14:21:52;;;;;;;41.30;17.90;;;;;;;6.28;70.65;102089.02;107864;1257;74060;-79
2023/01/24 14:24:34;;;;;;;38.60;19.20;;;;;;;6.49;69.90;102082.45;107837;1257;71518;-79
2023/01/24 14:27:29;;;;;;;45.80;20.20;;;;;;;6.34;68.62;102083.33;107809;1257;73916;-79
2023/01/24 14:30:25;;;;;;;38.20;18.90;;;;;;;6.33;68.07;102082.27;107818;1257;61281;-79
2023/01/24 14:32:55;;;;;;;33.80;15.90;;;;;;;6.16;67.94;102082.05;107811;1257;60101;-78
2023/01/24 14:35:29;;;;;;;35.10;16.40;;;;;;;5.95;68.80;102077.61;107582;1257;73137;-79
2023/01/24 14:38:17;;;;;;;37.40;18.10;;;;;;;5.97;68.94;102075.19;107635;1257;71455;-79
2023/01/24 14:40:54;;;;;;;43.30;19.20;;;;;;;6.03;68.85;102077.72;107827;1257;71561;-79
2023/01/24 14:43:23;;;;;;;37.70;17.20;;;;;;;6.34;67.66;102082.45;107570;1257;62429;-81
2023/01/24 14:45:49;;;;;;;40.60;18.80;;;;;;;6.27;66.99;102082.71;107787;1257;59660;-81
2023/01/24 14:48:24;;;;;;;37.50;18.60;;;;;;;6.11;67.36;102083.05;107775;1257;72993;-79
2023/01/24 14:50:59;;;;;;;36.00;18.20;;;;;;;6.14;67.27;102090.06;107635;1257;69561;-79
2023/01/24 14:53:29;;;;;;;44.60;21.10;;;;;;;6.29;66.29;102092.50;107650;1263;71805;-79
2023/01/24 14:56:08;;;;;;;39.50;17.50;;;;;;;6.32;66.32;102098.30;107836;1257;62263;-79
2023/01/24 14:58:35;;;;;;;49.40;23.00;;;;;;;6.29;66.38;102099.32;107788;1257;61217;-78
2023/01/24 15:01:02;;;;;;;46.10;20.70;;;;;;;5.98;66.81;102102.91;107775;1257;74442;-79
2023/01/24 15:03:31;;;;;;;41.00;19.50;;;;;;;5.98;67.29;102099.44;107679;1257;70501;-79
2023/01/24 15:06:01;;;;;;;41.10;20.10;;;;;;;5.93;67.50;102101.82;107806;1257;72696;-78
2023/01/24 15:08:28;;;;;;;43.60;20.50;;;;;;;5.76;68.21;102098.41;107711;1261;60856;-79
2023/01/24 15:11:05;;;;;;;39.60;19.60;;;;;;;5.57;69.05;102096.22;107651;1257;59538;-79
2023/01/24 15:13:43;;;;;;;41.80;20.00;;;;;;;5.69;69.05;102095.17;107730;1257;73931;-79
2023/01/24 15:16:21;;;;;;;33.50;16.00;;;;;;;5.83;68.55;102091.36;107736;1257;71613;-79
2023/01/24 15:19:01;;;;;;;47.00;20.10;;;;;;;5.76;68.56;102093.01;107745;1259;71865;-80
2023/01/24 15:21:30;;;;;;;43.40;20.30;;;;;;;6.10;67.33;102089.14;107738;1260;61923;-80
2023/01/24 15:23:57;;;;;;;44.00;20.50;;;;;;;6.26;66.74;102084.63;107722;1260;61433;-79
2023/01/24 15:26:27;;;;;;;47.20;20.70;;;;;;;6.09;66.89;102082.15;107517;1259;73119;-79
2023/01/24 15:28:54;;;;;;;41.00;19.40;;;;;;;6.13;66.71;102083.60;107781;1258;69650;-80
2023/01/24 15:31:22;;;;;;;42.20;20.30;;;;;;;5.79;67.34;102087.29;107755;1259;72454;-78
2023/01/24 15:33:54;;;;;;;45.00;20.40;;;;;;;5.95;67.03;102086.68;107744;1259;62537;-80
2023/01/24 15:36:25;;;;;;;43.70;19.00;;;;;;;5.84;67.33;102093.65;107580;1258;61364;-79
2023/01/24 15:38:56;;;;;;;49.70;21.10;;;;;;;5.78;67.93;102096.88;107688;1262;74237;-80
2023/01/24 15:41:23;;;;;;;47.90;22.20;;;;;;;5.96;67.43;102095.39;107734;1259;70726;-79
2023/01/24 15:43:53;;;;;;;48.20;20.50;;;;;;;5.79;67.74;102095.31;107708;1260;72347;-78
2023/01/24 15:49:20;;;;;;;42.60;19.90;;;;;;;5.90;67.77;102089.39;107777;1259;60308;-78
2023/01/24 15:52:21;;;;;;;44.20;18.00;;;;;;;5.87;67.61;102094.38;107752;1258;72311;-79
2023/01/24 15:54:55;;;;;;;54.00;24.60;;;;;;;6.08;67.52;102090.33;107768;1259;70135;-78
2023/01/24 19:59:05;;;;;;;64.30;31.90;;;;;;;1.68;100.00;102067.38;105819;1281;613454;-65
2023/01/24 20:01:33;;;;;;;64.20;29.10;;;;;;;3.08;100.00;102065.20;107289;1269;174819;-65
2023/01/24 20:04:02;;;;;;;63.20;28.80;;;;;;;3.17;100.00;102065.39;107422;1264;59723;-64
2023/01/24 20:06:50;;;;;;;66.20;28.80;;;;;;;3.24;100.00;102065.92;107441;1264;72904;-62
2023/01/24 20:09:19;;;;;;;59.60;27.00;;;;;;;3.32;100.00;102067.88;107503;1264;71311;-64
2023/01/24 20:11:50;;;;;;;54.30;26.00;;;;;;;3.36;100.00;102063.29;107425;1264;71362;-63
2023/01/24 20:14:19;;;;;;;65.70;29.50;;;;;;;3.28;100.00;102059.08;107418;1264;62227;-64
2023/01/24 20:16:47;;;;;;;68.80;29.10;;;;;;;3.13;100.00;102064.27;107445;1263;59678;-66
2023/01/24 20:19:18;;;;;;;59.70;27.50;;;;;;;3.11;100.00;102062.68;107395;1264;71648;-65
2023/01/24 20:21:57;;;;;;;57.00;26.30;;;;;;;3.20;100.00;102066.86;107435;1264;71312;-64
2023/01/24 20:24:26;;;;;;;54.20;24.40;;;;;;;3.29;100.00;102065.73;107391;1264;70719;-65
2023/01/24 20:26:54;;;;;;;51.50;24.00;;;;;;;3.34;100.00;102071.22;107439;1264;62246;-64
2023/01/24 20:29:23;;;;;;;56.30;25.80;;;;;;;3.38;100.00;102069.39;107474;1264;60335;-64
2023/01/24 20:31:52;;;;;;;64.10;29.70;;;;;;;3.48;100.00;102070.52;107495;1264;73440;-63
2023/01/24 20:34:23;;;;;;;67.00;28.40;;;;;;;3.54;100.00;102065.77;107370;1264;69147;-64
2023/01/24 20:36:51;;;;;;;62.70;29.00;;;;;;;3.63;100.00;102064.57;107400;1264;72737;-64
2023/01/24 20:39:20;;;;;;;57.50;24.90;;;;;;;3.64;100.00;102066.52;107352;1264;62095;-64
2023/01/24 20:41:49;;;;;;;66.00;30.50;;;;;;;3.66;100.00;102065.70;107326;1264;61566;-63
2023/01/24 20:44:18;;;;;;;71.00;29.70;;;;;;;3.99;100.00;102071.10;107962;1257;72855;-65
2023/01/24 20:46:54;;;;;;;74.90;31.70;;;;;;;4.26;100.00;102073.23;108040;1254;70472;-65
2023/01/24 20:49:23;;;;;;;60.10;26.80;;;;;;;4.53;100.00;102068.01;108045;1257;72384;-62
2023/01/24 20:51:52;;;;;;;57.40;26.90;;;;;;;4.39;100.00;102069.48;107990;1257;61828;-64
2023/01/24 20:54:21;;;;;;;66.30;28.90;;;;;;;4.25;100.00;102073.20;108005;1257;61538;-62
2023/01/24 20:56:56;;;;;;;68.20;28.30;;;;;;;4.20;100.00;102072.74;107968;1257;73832;-65
2023/01/24 20:59:26;;;;;;;67.40;28.50;;;;;;;4.20;100.00;102069.79;107779;1257;71333;-64
2023/01/24 21:01:54;;;;;;;70.90;32.00;;;;;;;4.31;100.00;102065.32;107783;1257;73336;-65
2023/01/24 21:04:27;;;;;;;62.30;28.60;;;;;;;4.26;100.00;102067.65;107707;1257;62494;-63
2023/01/24 21:06:56;;;;;;;55.10;24.20;;;;;;;4.08;100.00;102066.93;107805;1257;60235;-63
2023/01/24 21:09:25;;;;;;;50.60;22.90;;;;;;;4.03;100.00;102060.59;107733;1257;73781;-65
2023/01/24 21:11:53;;;;;;;70.90;30.10;;;;;;;4.24;100.00;102064.66;107756;1257;71415;-62
2023/01/24 21:14:22;;;;;;;62.00;27.50;;;;;;;4.28;100.00;102059.86;107744;1257;73559;-63
2023/01/24 21:16:51;;;;;;;55.20;25.50;;;;;;;4.31;100.00;102060.10;107740;1257;61887;-64
2023/01/24 21:19:20;;;;;;;66.30;29.40;;;;;;;4.34;100.00;102053.55;107817;1257;60303;-64
2023/01/24 21:21:50;;;;;;;80.40;32.20;;;;;;;4.41;100.00;102059.93;107773;1257;73261;-64
2023/01/24 21:24:18;;;;;;;69.00;28.50;;;;;;;4.39;100.00;102063.39;107771;1257;71544;-68
2023/01/24 21:27:02;;;;;;;75.30;31.90;;;;;;;4.53;100.00;102053.90;107819;1257;73747;-63
2023/01/24 21:29:30;;;;;;;67.40;28.60;;;;;;;4.59;100.00;102051.05;107817;1257;61698;-62
2023/01/24 21:32:06;;;;;;;68.00;29.60;;;;;;;4.41;100.00;102051.61;108078;1254;61415;-60
2023/01/24 21:34:34;;;;;;;72.90;30.80;;;;;;;4.29;100.00;102056.05;108053;1254;73887;-64
2023/01/24 21:37:02;;;;;;;69.90;29.80;;;;;;;4.30;100.00;102056.59;108056;1254;71309;-62
2023/01/24 21:39:30;;;;;;;64.70;28.10;;;;;;;4.51;100.00;102051.08;108039;1259;73857;-64
2023/01/24 21:42:00;;;;;;;63.80;27.30;;;;;;;4.64;100.00;102048.71;108080;1254;61866;-62
2023/01/24 21:44:33;;;;;;;72.20;32.40;;;;;;;4.38;100.00;102049.98;108023;1254;59634;-64
2023/01/24 21:47:01;;;;;;;56.30;23.80;;;;;;;4.27;100.00;102047.32;108016;1254;72854;-62
2023/01/24 21:49:29;;;;;;;73.80;30.90;;;;;;;4.25;100.00;102048.33;108053;1256;69189;-64
2023/01/24 21:51:59;;;;;;;71.40;30.60;;;;;;;4.38;100.00;102043.54;108049;1254;73365;-65
2023/01/24 21:54:32;;;;;;;65.30;29.20;;;;;;;4.51;100.00;102038.73;108102;1257;62026;-64
2023/01/24 22:00:07;;;;;;;79.70;32.50;;;;;;;4.53;100.00;102034.61;108082;1257;73766;-63
2023/01/24 22:02:42;;;;;;;84.30;35.40;;;;;;;4.51;90.80;102030.39;108061;1254;70919;-62
